Time;durP1;ratioP1;P1;durP2;ratioP2;P2;SDS_P1;SDS_P2;PMS_P1;PMS_P2;Temp;Humidity;BMP_temperature;BMP_pressure;BME280_temperature;BME280_humidity;BME280_pressure;Samples;Min_cycle;Max_cycle;Signal;HPM_P1;HPM_P2
2023/05/21 00:00:11;;;;;;;8.75;3.30;;;;;;;11.84;100.00;100676.41;4939190;29;20050;-75
2023/05/21 00:02:37;;;;;;;10.32;2.90;;;;;;;11.83;100.00;100677.50;4920714;29;20028;-75
2023/05/21 00:05:03;;;;;;;9.40;3.35;;;;;;;11.81;100.00;100674.22;4906370;29;20044;-75
2023/05/21 00:07:30;;;;;;;8.50;3.42;;;;;;;11.79;100.00;100687.59;4921901;29;20087;-75
2023/05/21 00:09:56;;;;;;;9.50;3.47;;;;;;;11.75;100.00;100680.13;4934874;29;20385;-75
2023/05/21 00:12:21;;;;;;;6.22;3.20;;;;;;;11.72;100.00;100675.97;4936395;29;20043;-75
2023/05/21 00:14:47;;;;;;;8.27;3.45;;;;;;;11.66;100.00;100677.19;4938826;29;20461;-75
2023/05/21 00:17:12;;;;;;;8.93;3.58;;;;;;;11.61;100.00;100675.28;4938680;29;20046;-75
2023/05/21 00:19:38;;;;;;;8.13;3.60;;;;;;;11.61;100.00;100680.00;4937928;29;20095;-75
2023/05/21 00:22:04;;;;;;;8.98;3.28;;;;;;;11.56;100.00;100680.94;4937336;29;20032;-75
2023/05/21 00:24:30;;;;;;;11.13;3.60;;;;;;;11.55;100.00;100681.22;4921819;29;20036;-75
2023/05/21 00:26:55;;;;;;;12.40;3.60;;;;;;;11.50;100.00;100681.25;4921294;29;20040;-75
2023/05/21 00:29:21;;;;;;;10.02;3.83;;;;;;;11.48;100.00;100681.56;4939946;29;20036;-75
2023/05/21 00:31:48;;;;;;;7.50;3.92;;;;;;;11.46;100.00;100680.22;4939697;29;20032;-75
2023/05/21 00:34:15;;;;;;;10.93;3.60;;;;;;;11.45;100.00;100678.53;4937838;29;20482;-75
2023/05/21 00:36:44;;;;;;;10.02;3.90;;;;;;;11.37;100.00;100664.19;4921195;29;20033;-75
2023/05/21 00:39:10;;;;;;;10.82;3.50;;;;;;;11.39;100.00;100661.94;4942388;29;20027;-75
2023/05/21 00:41:37;;;;;;;6.00;3.30;;;;;;;11.33;100.00;100665.88;4940797;29;20019;-75
2023/05/21 00:44:02;;;;;;;13.25;3.38;;;;;;;11.33;100.00;100660.31;4925212;29;20023;-75
2023/05/21 00:46:28;;;;;;;13.80;3.80;;;;;;;11.30;100.00;100660.91;4940566;29;20370;-75
2023/05/21 00:48:53;;;;;;;8.60;3.72;;;;;;;11.30;100.00;100663.69;4921974;29;20043;-75
2023/05/21 00:51:20;;;;;;;7.90;3.58;;;;;;;11.19;100.00;100657.41;4940672;29;20043;-75
2023/05/21 00:53:47;;;;;;;9.65;3.63;;;;;;;11.17;100.00;100656.03;4926091;29;20167;-75
2023/05/21 00:56:13;;;;;;;8.48;3.58;;;;;;;11.17;100.00;100650.47;4924349;29;20070;-75
2023/05/21 00:58:38;;;;;;;8.80;3.67;;;;;;;11.15;100.00;100652.75;4925424;29;20396;-75
2023/05/21 01:01:05;;;;;;;8.48;3.92;;;;;;;11.12;100.00;100653.34;4940723;29;20043;-75
2023/05/21 01:03:36;;;;;;;15.20;4.15;;;;;;;11.06;100.00;100648.94;4941003;29;20032;-75
2023/05/21 01:06:04;;;;;;;11.30;4.05;;;;;;;11.05;100.00;100650.06;4941918;29;20091;-75
2023/05/21 01:08:29;;;;;;;8.55;3.45;;;;;;;11.04;100.00;100652.03;4942014;29;20449;-75
2023/05/21 01:10:54;;;;;;;8.45;3.75;;;;;;;11.04;100.00;100648.44;4940572;29;20056;-75
2023/05/21 01:13:21;;;;;;;11.80;3.80;;;;;;;11.02;100.00;100653.44;4908706;29;20031;-75
2023/05/21 01:15:46;;;;;;;11.10;3.90;;;;;;;10.99;100.00;100654.03;4924852;29;20059;-75
2023/05/21 01:18:13;;;;;;;8.43;3.65;;;;;;;11.02;100.00;100648.69;4941712;29;20094;-75
2023/05/21 01:20:41;;;;;;;14.90;3.55;;;;;;;10.95;100.00;100635.16;4924604;29;20067;-75
2023/05/21 01:23:06;;;;;;;10.45;3.75;;;;;;;10.94;100.00;100639.03;4940180;29;20504;-75
2023/05/21 01:25:32;;;;;;;11.43;4.18;;;;;;;10.91;100.00;100639.63;4940327;29;20036;-75
2023/05/21 01:27:57;;;;;;;7.47;3.72;;;;;;;10.90;100.00;100642.72;4937184;29;20036;-75
2023/05/21 01:30:23;;;;;;;10.95;3.92;;;;;;;10.92;100.00;100643.25;4937096;29;20059;-75
2023/05/21 01:33:03;;;;;;;7.82;3.80;;;;;;;10.85;100.00;100642.78;4941563;29;20060;-75
2023/05/21 01:35:38;;;;;;;10.15;3.60;;;;;;;10.83;100.00;100643.06;4941454;29;20035;-75
2023/05/21 01:38:19;;;;;;;8.70;3.70;;;;;;;10.82;100.00;100635.84;4924145;29;20441;-75
2023/05/21 01:40:47;;;;;;;10.88;3.75;;;;;;;10.83;100.00;100639.44;4923260;29;20056;-75
2023/05/21 01:43:13;;;;;;;12.68;3.72;;;;;;;10.80;100.00;100646.41;4923347;29;20120;-75
2023/05/21 01:45:39;;;;;;;11.98;4.82;;;;;;;10.75;100.00;100649.22;4924140;29;20038;-75
2023/05/21 01:48:05;;;;;;;11.15;3.70;;;;;;;10.74;100.00;100636.47;4940163;29;20506;-75
2023/05/21 01:50:31;;;;;;;8.50;3.50;;;;;;;10.71;100.00;100632.34;4924018;29;20071;-75
2023/05/21 01:52:57;;;;;;;11.05;4.20;;;;;;;10.74;100.00;100633.69;4923798;29;20461;-74
2023/05/21 01:55:25;;;;;;;10.85;3.72;;;;;;;10.70;100.00;100633.47;4924043;29;20036;-75
2023/05/21 01:57:52;;;;;;;11.40;3.60;;;;;;;10.72;100.00;100630.38;4939584;29;20111;-76
2023/05/21 02:00:19;;;;;;;12.20;3.75;;;;;;;10.67;100.00;100635.97;4940210;29;20388;-75
2023/05/21 02:02:44;;;;;;;9.77;3.55;;;;;;;10.64;100.00;100633.78;4937399;29;20028;-75
2023/05/21 02:05:09;;;;;;;18.73;4.20;;;;;;;10.60;100.00;100638.28;4940898;29;20036;-75
2023/05/21 02:07:36;;;;;;;15.30;4.10;;;;;;;10.47;100.00;100636.97;4939582;29;20039;-74
2023/05/21 02:10:02;;;;;;;9.20;4.00;;;;;;;10.47;100.00;100643.41;4923830;29;20564;-75
2023/05/21 02:12:28;;;;;;;11.90;3.72;;;;;;;10.48;100.00;100630.34;4940416;29;20051;-75
2023/05/21 02:14:55;;;;;;;13.45;3.95;;;;;;;10.42;100.00;100635.09;4940535;29;20031;-74
2023/05/21 02:17:21;;;;;;;16.23;4.40;;;;;;;10.44;100.00;100627.28;4923629;29;20035;-75
2023/05/21 02:19:47;;;;;;;11.18;4.13;;;;;;;10.42;100.00;100626.78;4940645;29;20027;-75
2023/05/21 02:22:12;;;;;;;13.13;4.07;;;;;;;10.40;100.00;100630.94;4940530;29;20086;-75
2023/05/21 02:24:38;;;;;;;12.02;4.47;;;;;;;10.36;100.00;100629.84;4939326;29;20055;-75
2023/05/21 02:27:05;;;;;;;9.15;3.83;;;;;;;10.37;100.00;100635.13;4940076;29;20629;-75
2023/05/21 02:29:31;;;;;;;9.70;3.78;;;;;;;10.38;100.00;100630.41;4933498;29;20042;-75
2023/05/21 02:31:56;;;;;;;10.15;3.97;;;;;;;10.31;100.00;100632.66;4923070;29;20039;-74
2023/05/21 02:34:23;;;;;;;14.35;4.30;;;;;;;10.29;100.00;100635.75;4940316;29;20039;-75
2023/05/21 02:36:51;;;;;;;15.63;3.75;;;;;;;10.33;100.00;100627.66;4923446;29;20052;-74
2023/05/21 02:39:18;;;;;;;11.35;3.90;;;;;;;10.29;100.00;100625.47;4940317;29;20063;-75
2023/05/21 02:41:44;;;;;;;14.23;3.45;;;;;;;10.24;100.00;100630.19;4907509;29;20035;-75
2023/05/21 02:44:10;;;;;;;13.85;4.57;;;;;;;10.18;100.00;100632.19;4940258;29;20032;-75
2023/05/21 02:46:35;;;;;;;12.52;3.80;;;;;;;10.22;100.00;100624.09;4922915;29;20027;-74
2023/05/21 02:49:01;;;;;;;16.75;4.60;;;;;;;10.17;100.00;100626.91;4935747;29;20039;-74
2023/05/21 02:51:26;;;;;;;10.32;3.83;;;;;;;10.15;100.00;100629.16;4938457;29;20705;-75
2023/05/21 02:53:52;;;;;;;15.95;4.90;;;;;;;10.09;100.00;100624.78;4939749;29;20031;-74
2023/05/21 02:56:17;;;;;;;11.60;3.65;;;;;;;10.12;100.00;100625.03;4938369;29;20056;-75
2023/05/21 02:58:43;;;;;;;20.08;4.22;;;;;;;10.14;100.00;100624.72;4935595;29;20446;-75
2023/05/21 03:01:08;;;;;;;14.73;4.45;;;;;;;10.11;100.00;100623.34;4919928;29;20115;-74
2023/05/21 03:03:34;;;;;;;10.07;4.25;;;;;;;10.09;100.00;100627.56;4939955;29;20038;-74
2023/05/21 03:06:00;;;;;;;13.43;3.90;;;;;;;10.07;100.00;100623.09;4907015;29;20038;-74
2023/05/21 03:08:25;;;;;;;11.43;3.55;;;;;;;10.09;100.00;100628.38;4922810;29;20031;-74
2023/05/21 03:10:51;;;;;;;12.65;4.38;;;;;;;10.07;100.00;100622.28;4935199;29;20042;-75
2023/05/21 03:13:16;;;;;;;19.00;4.40;;;;;;;10.05;100.00;100624.50;4930614;29;20039;-75
2023/05/21 03:15:42;;;;;;;16.90;3.90;;;;;;;10.09;100.00;100619.22;4939355;29;20038;-75
2023/05/21 03:18:09;;;;;;;14.32;3.88;;;;;;;10.08;100.00;100623.91;4935521;29;20039;-74
2023/05/21 03:20:34;;;;;;;17.08;4.25;;;;;;;10.04;100.00;100632.00;4936959;29;20028;-74
2023/05/21 03:23:03;;;;;;;9.52;3.40;;;;;;;10.06;100.00;100631.72;4906843;29;20039;-74
2023/05/21 03:25:29;;;;;;;13.43;4.20;;;;;;;10.05;100.00;100633.66;4922870;29;20043;-74
2023/05/21 03:27:54;;;;;;;13.77;3.60;;;;;;;10.04;100.00;100632.00;4930482;29;20040;-74
2023/05/21 03:30:20;;;;;;;13.70;3.88;;;;;;;10.05;100.00;100630.06;4922206;29;20046;-75
2023/05/21 03:32:46;;;;;;;10.82;3.45;;;;;;;10.05;100.00;100636.41;4922493;29;20040;-74
2023/05/21 03:35:11;;;;;;;10.32;3.78;;;;;;;9.98;100.00;100633.16;4922280;29;20124;-75
2023/05/21 03:37:36;;;;;;;15.60;5.13;;;;;;;9.92;100.00;100626.00;4919292;29;20606;-74
2023/05/21 03:40:03;;;;;;;11.68;3.47;;;;;;;9.97;100.00;100625.09;4935868;29;20082;-74
2023/05/21 03:42:28;;;;;;;11.90;3.60;;;;;;;9.94;100.00;100628.47;4918918;29;20039;-74
2023/05/21 03:44:54;;;;;;;12.80;3.78;;;;;;;9.91;100.00;100634.59;4936042;29;20036;-74
2023/05/21 03:47:19;;;;;;;15.38;3.88;;;;;;;9.94;100.00;100639.56;4937856;29;20051;-74
2023/05/21 03:49:45;;;;;;;15.77;4.43;;;;;;;9.87;100.00;100636.28;4922056;29;20091;-74
2023/05/21 03:52:10;;;;;;;12.70;3.35;;;;;;;9.90;100.00;100642.09;4937558;29;20036;-74
2023/05/21 03:54:36;;;;;;;15.15;4.47;;;;;;;9.86;100.00;100649.31;4922018;29;20038;-75
2023/05/21 03:57:01;;;;;;;9.85;3.67;;;;;;;9.89;100.00;100651.53;4938884;29;20056;-75
2023/05/21 03:59:27;;;;;;;16.50;3.55;;;;;;;9.89;100.00;100639.56;4921223;29;20036;-75
2023/05/21 04:01:52;;;;;;;17.65;4.13;;;;;;;9.90;100.00;100658.72;4938989;29;20028;-74
2023/05/21 04:04:18;;;;;;;14.65;3.83;;;;;;;9.88;100.00;100652.63;4937312;29;20048;-74
2023/05/21 04:06:43;;;;;;;17.25;4.55;;;;;;;9.85;100.00;100658.75;4938971;29;20563;-75
2023/05/21 04:09:08;;;;;;;12.00;3.65;;;;;;;9.87;100.00;100653.75;4922015;29;20027;-75
2023/05/21 04:11:34;;;;;;;16.63;4.13;;;;;;;9.89;100.00;100657.09;4921539;29;20032;-75
2023/05/21 04:14:00;;;;;;;15.05;3.92;;;;;;;9.83;100.00;100652.66;4938836;29;20032;-74
2023/05/21 04:16:25;;;;;;;13.55;3.70;;;;;;;9.84;100.00;100651.56;4937741;29;20031;-74
2023/05/21 04:18:54;;;;;;;13.18;4.10;;;;;;;9.84;100.00;100662.66;4938850;29;20055;-74
2023/05/21 04:21:20;;;;;;;14.10;3.92;;;;;;;9.83;100.00;100658.19;4938867;29;20388;-74
2023/05/21 04:23:45;;;;;;;15.48;3.28;;;;;;;9.82;100.00;100648.22;4918539;29;20029;-75
2023/05/21 04:26:11;;;;;;;14.63;3.63;;;;;;;9.79;100.00;100665.44;4929505;29;20032;-75
2023/05/21 04:28:40;;;;;;;12.35;3.55;;;;;;;9.79;100.00;100657.13;4921684;29;20079;-75
2023/05/21 04:31:07;;;;;;;19.65;4.65;;;;;;;9.75;100.00;100658.78;4938782;29;20067;-74
2023/05/21 04:33:34;;;;;;;15.88;3.72;;;;;;;9.74;100.00;100651.59;4938774;29;20028;-74
2023/05/21 04:36:00;;;;;;;14.80;4.22;;;;;;;9.71;100.00;100654.94;4938786;29;20023;-74
2023/05/21 04:38:25;;;;;;;21.25;5.05;;;;;;;9.67;100.00;100665.78;4921550;29;20433;-74
2023/05/21 04:40:51;;;;;;;18.83;4.22;;;;;;;9.70;100.00;100661.63;4938691;29;20042;-75
2023/05/21 04:43:17;;;;;;;15.45;3.90;;;;;;;9.72;100.00;100653.81;4921198;29;20036;-74
2023/05/21 04:45:42;;;;;;;19.08;4.65;;;;;;;9.61;100.00;100661.34;4938561;29;20039;-74
2023/05/21 04:48:08;;;;;;;9.43;3.50;;;;;;;9.65;100.00;100654.13;4938639;29;20035;-74
2023/05/21 04:50:33;;;;;;;17.05;4.75;;;;;;;9.67;100.00;100653.84;4921463;29;20035;-74
2023/05/21 04:52:59;;;;;;;15.80;4.60;;;;;;;9.58;100.00;100653.59;4937182;29;20039;-75
2023/05/21 04:55:24;;;;;;;17.40;4.35;;;;;;;9.66;100.00;100658.56;4937470;29;20362;-75
2023/05/21 04:57:50;;;;;;;24.50;5.43;;;;;;;9.67;100.00;100657.47;4936632;29;20051;-74
2023/05/21 05:00:16;;;;;;;16.05;4.03;;;;;;;9.71;100.00;100658.53;4921535;29;20027;-75
2023/05/21 05:02:41;;;;;;;17.75;5.60;;;;;;;9.63;100.00;100657.19;4938368;29;20051;-75
2023/05/21 05:05:07;;;;;;;17.77;5.15;;;;;;;9.66;100.00;100660.50;4938334;29;20036;-74
2023/05/21 05:07:33;;;;;;;16.67;3.92;;;;;;;9.69;100.00;100659.94;4921305;29;20396;-74
2023/05/21 05:09:58;;;;;;;19.98;5.75;;;;;;;9.72;100.00;100664.91;4938562;29;20035;-74
2023/05/21 05:12:24;;;;;;;16.67;4.85;;;;;;;9.75;100.00;100661.56;4937079;29;20039;-75
2023/05/21 05:14:49;;;;;;;17.33;6.00;;;;;;;9.73;100.00;100655.50;4938320;29;20038;-75
2023/05/21 05:17:15;;;;;;;11.82;5.47;;;;;;;9.74;100.00;100657.16;4940110;29;20091;-74
2023/05/21 05:19:40;;;;;;;18.90;4.72;;;;;;;9.75;100.00;100654.09;4941792;29;20028;-75
2023/05/21 05:22:06;;;;;;;24.90;6.97;;;;;;;9.78;100.00;100655.47;4924612;29;20102;-75
2023/05/21 05:24:31;;;;;;;26.08;7.95;;;;;;;9.80;100.00;100651.28;4924923;29;20392;-75
2023/05/21 05:26:57;;;;;;;18.48;6.07;;;;;;;9.84;100.00;100649.59;4924215;29;20027;-75
2023/05/21 05:29:22;;;;;;;18.25;6.53;;;;;;;9.83;100.00;100652.66;4941566;29;20032;-75
2023/05/21 05:31:48;;;;;;;23.63;7.72;;;;;;;9.87;100.00;100652.94;4940115;29;20036;-74
2023/05/21 05:34:13;;;;;;;17.15;7.43;;;;;;;9.93;100.00;100646.22;4940287;29;20027;-74
2023/05/21 05:36:39;;;;;;;20.77;7.68;;;;;;;9.93;100.00;100660.94;4941420;29;20035;-74
2023/05/21 05:39:04;;;;;;;21.23;8.80;;;;;;;9.98;100.00;100658.13;4941369;29;20546;-74
2023/05/21 05:41:30;;;;;;;26.38;8.85;;;;;;;10.00;100.00;100657.81;4908378;29;20031;-75
2023/05/21 05:43:55;;;;;;;22.48;9.02;;;;;;;10.06;100.00;100656.69;4941334;29;20038;-74
2023/05/21 05:46:21;;;;;;;25.40;10.18;;;;;;;10.15;100.00;100659.69;4924101;29;20028;-75
2023/05/21 05:48:46;;;;;;;24.85;9.90;;;;;;;10.19;100.00;100660.75;4924241;29;20058;-75
2023/05/21 05:51:12;;;;;;;26.17;9.30;;;;;;;10.25;100.00;100659.59;4938548;29;20074;-75
2023/05/21 05:53:37;;;;;;;28.60;10.35;;;;;;;10.32;100.00;100657.38;4940886;29;20035;-75
2023/05/21 05:56:03;;;;;;;25.40;10.32;;;;;;;10.40;100.00;100659.53;4940791;29;20477;-75
2023/05/21 05:58:28;;;;;;;25.23;10.15;;;;;;;10.48;100.00;100650.59;4941344;29;20115;-74
2023/05/21 06:00:54;;;;;;;27.20;12.25;;;;;;;10.56;100.00;100651.06;4922368;29;20038;-76
2023/05/21 06:03:19;;;;;;;32.58;12.07;;;;;;;10.62;100.00;100650.75;4941147;29;20039;-75
2023/05/21 06:05:45;;;;;;;24.83;12.63;;;;;;;10.70;100.00;100654.88;4923869;29;20035;-75
2023/05/21 06:08:10;;;;;;;26.45;12.05;;;;;;;10.77;100.00;100658.13;4939944;29;20032;-75
2023/05/21 06:10:36;;;;;;;35.92;14.32;;;;;;;10.85;100.00;100654.72;4940616;29;20043;-75
2023/05/21 06:13:01;;;;;;;33.17;13.38;;;;;;;10.91;100.00;100647.97;4940623;29;20472;-75
2023/05/21 06:15:27;;;;;;;29.95;12.07;;;;;;;11.02;100.00;100657.03;4940571;29;20033;-75
2023/05/21 06:17:52;;;;;;;20.98;10.10;;;;;;;11.11;100.00;100655.28;4939347;28;20038;-75
2023/05/21 06:20:18;;;;;;;24.90;12.93;;;;;;;11.19;100.00;100657.41;4940596;29;20043;-75
2023/05/21 06:22:43;;;;;;;30.13;14.93;;;;;;;11.27;100.00;100664.28;4923255;29;20401;-77
2023/05/21 06:25:09;;;;;;;36.05;13.18;;;;;;;11.37;100.00;100666.97;4939364;29;20733;-77
2023/05/21 06:27:36;;;;;;;26.58;12.48;;;;;;;11.48;100.00;100670.44;4907546;29;20047;-77
2023/05/21 06:30:01;;;;;;;25.45;12.55;;;;;;;11.58;100.00;100672.25;4900919;29;20456;-77
2023/05/21 06:32:27;;;;;;;27.73;13.23;;;;;;;11.67;100.00;100664.09;4940349;29;20042;-77
2023/05/21 06:34:52;;;;;;;31.27;14.07;;;;;;;11.75;100.00;100661.47;4939057;29;20481;-77
2023/05/21 06:37:18;;;;;;;29.77;13.02;;;;;;;11.83;100.00;100668.34;4940365;29;20059;-77
2023/05/21 06:39:43;;;;;;;26.42;13.73;;;;;;;11.90;100.00;100671.63;4940051;29;20054;-77
2023/05/21 06:42:09;;;;;;;25.17;12.23;;;;;;;12.03;100.00;100662.50;4940342;29;20616;-77
2023/05/21 06:44:34;;;;;;;31.00;13.52;;;;;;;12.10;100.00;100667.72;4938804;29;20027;-77
2023/05/21 06:47:00;;;;;;;25.10;12.85;;;;;;;12.19;100.00;100665.91;4939198;29;20032;-78
2023/05/21 06:49:25;;;;;;;34.28;13.82;;;;;;;12.26;100.00;100665.53;4938826;29;20046;-77
2023/05/21 06:51:51;;;;;;;25.15;11.02;;;;;;;12.38;100.00;100668.69;4939745;29;20031;-77
2023/05/21 06:54:16;;;;;;;28.98;12.80;;;;;;;12.45;100.00;100662.72;4922875;29;20028;-77
2023/05/21 06:56:42;;;;;;;29.65;14.65;;;;;;;12.49;100.00;100659.03;4903828;29;20067;-77
2023/05/21 06:59:07;;;;;;;36.38;15.13;;;;;;;12.57;100.00;100657.53;4919808;29;20035;-77
2023/05/21 07:01:33;;;;;;;30.17;15.45;;;;;;;12.64;100.00;100652.38;4935471;29;20032;-77
2023/05/21 07:03:58;;;;;;;29.08;14.10;;;;;;;12.78;100.00;100665.53;4916570;29;20039;-77
2023/05/21 07:06:24;;;;;;;35.70;14.85;;;;;;;12.87;100.00;100660.91;4919656;29;20043;-77
2023/05/21 07:08:50;;;;;;;28.38;14.10;;;;;;;12.97;100.00;100653.19;4935313;29;20478;-77
2023/05/21 07:11:16;;;;;;;26.63;13.45;;;;;;;13.11;100.00;100653.22;4919345;29;20047;-77
2023/05/21 07:13:41;;;;;;;34.20;15.10;;;;;;;13.20;100.00;100650.53;4919452;29;20040;-78
2023/05/21 07:16:06;;;;;;;31.38;14.13;;;;;;;13.34;100.00;100650.56;4920407;29;20039;-77
2023/05/21 07:18:32;;;;;;;33.72;16.02;;;;;;;13.43;100.00;100645.94;4920489;29;20044;-77
2023/05/21 07:20:58;;;;;;;30.55;14.25;;;;;;;13.56;100.00;100647.88;4919463;29;20024;-77
2023/05/21 07:23:23;;;;;;;30.23;15.18;;;;;;;13.76;100.00;100645.81;4903470;29;20028;-78
2023/05/21 07:25:48;;;;;;;32.47;14.80;;;;;;;13.91;100.00;100642.69;4919213;29;20028;-78
2023/05/21 07:28:14;;;;;;;29.48;15.32;;;;;;;14.08;100.00;100654.03;4903398;29;20036;-77
2023/05/21 07:30:40;;;;;;;28.50;15.32;;;;;;;14.26;100.00;100646.66;4886307;29;20482;-77
2023/05/21 07:33:05;;;;;;;29.48;14.65;;;;;;;14.49;100.00;100647.47;4928037;29;20478;-78
2023/05/21 07:35:31;;;;;;;28.08;13.23;;;;;;;14.67;100.00;100647.63;4919676;29;20032;-78
2023/05/21 07:37:56;;;;;;;23.13;12.43;;;;;;;14.84;100.00;100647.72;4916767;29;20024;-78
2023/05/21 07:40:21;;;;;;;21.10;10.52;;;;;;;15.00;100.00;100634.19;4934745;29;20404;-78
2023/05/21 07:42:47;;;;;;;24.65;13.25;;;;;;;15.23;100.00;100651.72;4918872;29;20095;-78
2023/05/21 07:45:12;;;;;;;26.85;13.48;;;;;;;15.43;100.00;100644.72;4918947;29;20051;-78
2023/05/21 07:47:38;;;;;;;27.95;12.70;;;;;;;15.69;100.00;100646.84;4931612;29;20065;-78
2023/05/21 07:50:04;;;;;;;22.08;12.70;;;;;;;15.91;100.00;100643.94;4916517;29;20382;-78
2023/05/21 07:52:30;;;;;;;25.45;13.93;;;;;;;16.06;100.00;100654.66;4918737;29;20039;-78
2023/05/21 07:54:55;;;;;;;26.27;12.85;;;;;;;16.26;100.00;100653.19;4898522;29;20055;-78
2023/05/21 07:57:22;;;;;;;22.30;12.30;;;;;;;16.42;100.00;100647.91;4934415;29;20084;-78
2023/05/21 07:59:47;;;;;;;26.88;13.25;;;;;;;16.56;100.00;100642.13;4918964;29;20100;-78
2023/05/21 08:02:13;;;;;;;21.27;10.93;;;;;;;16.74;100.00;100655.00;4918868;29;20044;-78
2023/05/21 08:04:38;;;;;;;19.63;11.60;;;;;;;16.92;100.00;100646.56;4918688;29;20043;-78
2023/05/21 08:07:04;;;;;;;27.05;12.82;;;;;;;17.02;100.00;100643.41;4920051;29;20088;-78
2023/05/21 08:09:31;;;;;;;21.92;12.25;;;;;;;17.19;100.00;100640.56;4934356;29;20028;-78
2023/05/21 08:11:56;;;;;;;23.05;11.02;;;;;;;17.39;100.00;100633.38;4934305;29;20035;-79
2023/05/21 08:14:22;;;;;;;24.30;13.07;;;;;;;17.53;100.00;100626.69;4918587;29;20036;-79
2023/05/21 08:16:47;;;;;;;17.88;11.65;;;;;;;17.66;100.00;100625.63;4919665;29;20028;-78
2023/05/21 08:19:13;;;;;;;20.58;12.63;;;;;;;17.78;100.00;100627.72;4934628;29;20036;-79
2023/05/21 08:21:38;;;;;;;23.98;12.30;;;;;;;18.00;100.00;100627.44;4919920;29;20021;-79
2023/05/21 08:24:04;;;;;;;18.55;11.23;;;;;;;18.07;100.00;100627.69;4918648;29;20370;-78
2023/05/21 08:26:29;;;;;;;23.40;11.35;;;;;;;18.13;100.00;100633.13;4902889;29;20032;-78
2023/05/21 08:28:55;;;;;;;21.83;11.20;;;;;;;18.16;100.00;100633.25;4934100;29;20036;-78
2023/05/21 08:31:20;;;;;;;26.33;12.90;;;;;;;18.18;100.00;100635.72;4919589;29;20032;-78
2023/05/21 08:33:50;;;;;;;25.15;11.13;;;;;;;18.30;100.00;100635.78;4902747;29;20035;-78
2023/05/21 08:36:16;;;;;;;21.90;10.77;;;;;;;18.37;100.00;100638.88;4915744;29;20029;-78
2023/05/21 08:38:41;;;;;;;22.90;11.43;;;;;;;18.38;100.00;100637.69;4932475;29;20040;-79
2023/05/21 08:41:07;;;;;;;21.15;12.18;;;;;;;18.36;100.00;100640.06;4918181;29;20050;-78
2023/05/21 08:43:32;;;;;;;17.10;10.82;;;;;;;18.42;100.00;100641.50;4918446;29;20088;-79
2023/05/21 08:45:58;;;;;;;20.15;10.98;;;;;;;18.43;100.00;100637.50;4918283;29;20036;-78
2023/05/21 08:48:23;;;;;;;20.23;11.57;;;;;;;18.46;100.00;100633.19;4931087;29;20028;-78
2023/05/21 08:50:50;;;;;;;22.52;11.68;;;;;;;18.55;100.00;100639.53;4937032;29;20032;-79
2023/05/21 08:53:16;;;;;;;24.02;12.63;;;;;;;18.63;100.00;100635.00;4906230;29;20028;-78
2023/05/21 08:55:41;;;;;;;20.83;12.18;;;;;;;18.64;100.00;100637.47;4924573;29;20051;-78
2023/05/21 08:58:07;;;;;;;21.95;12.57;;;;;;;18.70;100.00;100635.28;4909684;29;20047;-79
2023/05/21 09:00:32;;;;;;;20.02;11.50;;;;;;;18.70;100.00;100630.47;4921784;29;20035;-78
2023/05/21 09:02:59;;;;;;;25.23;13.15;;;;;;;18.57;100.00;100637.22;4923681;29;20039;-78
2023/05/21 09:05:25;;;;;;;24.13;13.52;;;;;;;18.52;100.00;100626.97;4925103;29;20043;-79
2023/05/21 09:08:12;;;;;;;19.08;12.40;;;;;;;18.46;100.00;100624.75;4940775;29;20039;-79
2023/05/21 09:10:41;;;;;;;21.20;12.60;;;;;;;18.25;100.00;100621.97;4909178;29;20063;-78
2023/05/21 09:13:06;;;;;;;20.27;11.85;;;;;;;18.19;100.00;100607.28;4940409;29;20109;-78
2023/05/21 09:15:32;;;;;;;23.63;13.55;;;;;;;18.17;100.00;100618.03;4923796;29;20491;-79
2023/05/21 09:17:57;;;;;;;25.58;13.82;;;;;;;18.26;100.00;100615.97;4924787;29;20038;-78
2023/05/21 09:20:24;;;;;;;21.45;13.75;;;;;;;18.25;100.00;100605.09;4941946;29;20519;-79
2023/05/21 09:22:50;;;;;;;21.70;11.55;;;;;;;18.39;100.00;100602.81;4924774;29;20106;-79
2023/05/21 09:25:22;;;;;;;21.08;11.45;;;;;;;18.51;100.00;100608.47;4924615;29;20067;-79
2023/05/21 09:27:47;;;;;;;21.35;12.73;;;;;;;18.58;100.00;100607.91;4920982;29;20032;-78
2023/05/21 09:30:14;;;;;;;20.42;13.13;;;;;;;18.65;100.00;100604.53;4936185;29;20042;-78
2023/05/21 09:32:40;;;;;;;22.70;12.55;;;;;;;18.81;100.00;100607.56;4940244;29;20508;-78
2023/05/21 09:35:13;;;;;;;20.88;12.60;;;;;;;18.92;100.00;100601.16;4924421;29;20058;-79
2023/05/21 09:37:44;;;;;;;;;;;;;;;19.07;100.00;100598.81;4937569;29;20090;-78
2023/05/21 09:40:11;;;;;;;18.30;11.48;;;;;;;19.26;100.00;100598.25;4937911;29;19983;-79
2023/05/21 09:42:50;;;;;;;17.00;10.63;;;;;;;19.42;100.00;100600.03;4921107;29;20055;-79
2023/05/21 09:45:22;;;;;;;20.25;11.52;;;;;;;19.57;100.00;100600.50;4903923;29;20028;-79
2023/05/21 09:47:49;;;;;;;17.45;11.15;;;;;;;19.74;100.00;100605.09;4940194;29;20032;-78
2023/05/21 09:50:23;;;;;;;20.20;11.43;;;;;;;19.91;100.00;100604.00;4924031;29;20090;-79
2023/05/21 09:52:49;;;;;;;16.17;11.02;;;;;;;19.93;100.00;100598.84;4924236;29;20063;-79
2023/05/21 09:55:15;;;;;;;19.20;11.10;;;;;;;20.11;100.00;100596.56;4908491;29;20043;-79
2023/05/21 09:57:41;;;;;;;16.63;9.95;;;;;;;20.25;100.00;100595.00;4936563;29;20481;-79
2023/05/21 10:00:09;;;;;;;20.50;11.73;;;;;;;20.29;100.00;100590.28;4922026;29;20032;-79
2023/05/21 10:02:35;;;;;;;13.77;9.65;;;;;;;20.40;100.00;100587.75;4919002;29;20032;-79
2023/05/21 10:05:01;;;;;;;15.27;9.23;;;;;;;20.56;100.00;100593.50;4921919;29;20065;-79
2023/05/21 10:07:26;;;;;;;16.40;9.88;;;;;;;20.62;100.00;100594.06;4936373;29;20032;-79
2023/05/21 10:09:56;;;;;;;20.50;9.50;;;;;;;20.72;100.00;100594.31;4920625;29;20069;-79
2023/05/21 10:12:22;;;;;;;16.33;9.80;;;;;;;20.70;100.00;100596.72;4936217;29;20028;-79
2023/05/21 10:14:51;;;;;;;17.75;10.45;;;;;;;20.72;100.00;100604.81;4920542;29;20028;-79
2023/05/21 10:17:16;;;;;;;13.95;9.90;;;;;;;20.69;100.00;100595.06;4920125;29;20032;-77
2023/05/21 10:19:42;;;;;;;18.05;10.55;;;;;;;20.62;100.00;100606.16;4936346;29;20047;-77
2023/05/21 10:22:07;;;;;;;18.08;10.57;;;;;;;20.62;100.00;100611.81;4920452;29;20028;-76
2023/05/21 10:24:33;;;;;;;19.15;10.98;;;;;;;20.68;100.00;100610.34;4933013;29;20053;-77
2023/05/21 10:26:58;;;;;;;17.65;10.70;;;;;;;20.75;100.00;100592.78;4902912;29;20375;-78
2023/05/21 10:29:24;;;;;;;18.58;11.18;;;;;;;20.91;100.00;100604.94;4920518;29;20393;-77
2023/05/21 10:31:50;;;;;;;16.52;10.00;;;;;;;21.01;100.00;100599.94;4920387;29;20028;-77
2023/05/21 10:34:16;;;;;;;19.83;11.85;;;;;;;21.14;100.00;100610.78;4933734;29;20120;-77
2023/05/21 10:36:42;;;;;;;15.18;10.18;;;;;;;21.30;100.00;100604.31;4901766;29;20036;-76
2023/05/21 10:39:08;;;;;;;14.88;9.18;;;;;;;21.38;100.00;100606.19;4922552;29;20027;-77
2023/05/21 10:41:39;;;;;;;14.82;9.90;;;;;;;21.49;100.00;100606.44;4919788;29;20024;-77
2023/05/21 10:44:25;;;;;;;11.57;8.13;;;;;;;21.66;99.45;100596.75;4925969;29;20091;-77
2023/05/21 10:46:56;;;;;;;15.45;10.25;;;;;;;21.81;99.13;100602.41;4908725;29;20028;-77
2023/05/21 10:49:34;;;;;;;16.42;9.48;;;;;;;21.94;100.00;100605.09;4902499;29;20372;-77
2023/05/21 10:52:17;;;;;;;15.75;9.50;;;;;;;22.06;100.00;100604.94;4939886;29;20041;-77
2023/05/21 10:54:53;;;;;;;15.25;10.23;;;;;;;22.21;95.69;100603.31;4903534;29;20028;-77
2023/05/21 10:57:42;;;;;;;16.35;9.48;;;;;;;22.18;90.82;100601.22;4919245;29;20079;-77
2023/05/21 11:00:09;;;;;;;14.82;10.43;;;;;;;22.04;95.60;100591.19;4927203;29;20047;-77
2023/05/21 11:02:35;;;;;;;18.15;10.38;;;;;;;22.16;94.70;100592.25;4920561;29;20119;-77
2023/05/21 11:05:01;;;;;;;15.15;9.77;;;;;;;22.21;93.69;100586.34;4934908;29;20099;-77